sensor_id;sensor_type;location;lat;lon;timestamp;pressure;altitude;pressure_sealevel;temperature;humidity
78485;BME280;67773;50.806;8.776;2024-03-23T00:56:07;98825.63;;;6.46;100.00
78485;BME280;67773;50.806;8.776;2024-03-23T00:58:33;98821.06;;;6.50;100.00
78485;BME280;67773;50.806;8.776;2024-03-23T01:00:58;98805.72;;;6.58;100.00
78485;BME280;67773;50.806;8.776;2024-03-23T01:03:23;98807.13;;;6.65;100.00
78485;BME280;67773;50.806;8.776;2024-03-23T01:05:49;98797.66;;;6.61;100.00
78485;BME280;67773;50.806;8.776;2024-03-23T01:08:14;98798.00;;;6.72;100.00
78485;BME280;67773;50.806;8.776;2024-03-23T01:10:40;98794.66;;;6.69;100.00
78485;BME280;67773;50.806;8.776;2024-03-23T01:13:05;98788.28;;;6.73;100.00
78485;BME280;67773;50.806;8.776;2024-03-23T01:15:30;98800.38;;;6.77;100.00
78485;BME280;67773;50.806;8.776;2024-03-23T01:17:56;98796.03;;;6.76;100.00
78485;BME280;67773;50.806;8.776;2024-03-23T01:20:21;98793.31;;;6.77;100.00
78485;BME280;67773;50.806;8.776;2024-03-23T01:22:46;98789.00;;;6.76;100.00
78485;BME280;67773;50.806;8.776;2024-03-23T01:25:12;98784.44;;;6.80;100.00
78485;BME280;67773;50.806;8.776;2024-03-23T01:27:37;98795.59;;;6.85;100.00
78485;BME280;67773;50.806;8.776;2024-03-23T01:30:03;98793.81;;;6.85;100.00
78485;BME280;67773;50.806;8.776;2024-03-23T01:32:28;98787.53;;;6.88;100.00
78485;BME280;67773;50.806;8.776;2024-03-23T01:34:53;98776.28;;;6.84;100.00
78485;BME280;67773;50.806;8.776;2024-03-23T01:37:21;98775.44;;;6.84;100.00
78485;BME280;67773;50.806;8.776;2024-03-23T01:39:47;98773.47;;;6.87;100.00
78485;BME280;67773;50.806;8.776;2024-03-23T01:42:12;98768.16;;;6.89;100.00
78485;BME280;67773;50.806;8.776;2024-03-23T01:44:38;98773.88;;;6.97;100.00
78485;BME280;67773;50.806;8.776;2024-03-23T01:47:03;98769.31;;;7.01;100.00
78485;BME280;67773;50.806;8.776;2024-03-23T01:49:28;98762.84;;;7.06;100.00
78485;BME280;67773;50.806;8.776;2024-03-23T01:51:54;98749.53;;;7.09;100.00
78485;BME280;67773;50.806;8.776;2024-03-23T01:54:20;98755.47;;;7.13;100.00
78485;BME280;67773;50.806;8.776;2024-03-23T01:56:46;98750.75;;;7.02;100.00
78485;BME280;67773;50.806;8.776;2024-03-23T01:59:11;98740.38;;;6.99;100.00
78485;BME280;67773;50.806;8.776;2024-03-23T02:01:36;98733.78;;;6.90;100.00
78485;BME280;67773;50.806;8.776;2024-03-23T02:04:02;98734.28;;;6.97;100.00
78485;BME280;67773;50.806;8.776;2024-03-23T02:06:28;98732.97;;;7.06;100.00
78485;BME280;67773;50.806;8.776;2024-03-23T02:08:54;98735.53;;;7.07;100.00
78485;BME280;67773;50.806;8.776;2024-03-23T02:11:19;98744.00;;;7.14;100.00
78485;BME280;67773;50.806;8.776;2024-03-23T02:13:45;98726.19;;;7.17;100.00
78485;BME280;67773;50.806;8.776;2024-03-23T02:16:10;98728.53;;;7.06;100.00
78485;BME280;67773;50.806;8.776;2024-03-23T02:18:36;98723.19;;;7.08;100.00
78485;BME280;67773;50.806;8.776;2024-03-23T02:21:01;98729.72;;;7.01;100.00
78485;BME280;67773;50.806;8.776;2024-03-23T02:23:27;98720.03;;;7.01;100.00
78485;BME280;67773;50.806;8.776;2024-03-23T02:25:52;98717.41;;;7.01;100.00
78485;BME280;67773;50.806;8.776;2024-03-23T02:28:21;98710.25;;;7.03;100.00
78485;BME280;67773;50.806;8.776;2024-03-23T02:30:50;98695.34;;;7.19;100.00
78485;BME280;67773;50.806;8.776;2024-03-23T02:33:16;98692.69;;;7.19;100.00
78485;BME280;67773;50.806;8.776;2024-03-23T02:35:41;98697.66;;;7.08;100.00
78485;BME280;67773;50.806;8.776;2024-03-23T02:38:06;98693.16;;;7.10;100.00
78485;BME280;67773;50.806;8.776;2024-03-23T02:40:32;98695.56;;;7.15;100.00
78485;BME280;67773;50.806;8.776;2024-03-23T02:42:57;98670.69;;;7.19;100.00
78485;BME280;67773;50.806;8.776;2024-03-23T02:45:22;98672.19;;;7.07;100.00
78485;BME280;67773;50.806;8.776;2024-03-23T02:47:48;98667.63;;;7.11;100.00
78485;BME280;67773;50.806;8.776;2024-03-23T02:50:19;98651.88;;;7.09;100.00
78485;BME280;67773;50.806;8.776;2024-03-23T02:52:45;98649.25;;;7.09;100.00
78485;BME280;67773;50.806;8.776;2024-03-23T02:55:11;98660.41;;;7.14;100.00
78485;BME280;67773;50.806;8.776;2024-03-23T02:57:36;98668.63;;;7.08;100.00
78485;BME280;67773;50.806;8.776;2024-03-23T03:00:01;98659.25;;;7.03;100.00
78485;BME280;67773;50.806;8.776;2024-03-23T03:02:27;98657.19;;;6.92;100.00
78485;BME280;67773;50.806;8.776;2024-03-23T03:04:52;98669.28;;;6.96;100.00
78485;BME280;67773;50.806;8.776;2024-03-23T03:07:18;98675.94;;;7.03;100.00
78485;BME280;67773;50.806;8.776;2024-03-23T03:09:43;98676.13;;;7.00;100.00
78485;BME280;67773;50.806;8.776;2024-03-23T03:12:08;98667.50;;;6.97;100.00
78485;BME280;67773;50.806;8.776;2024-03-23T03:14:34;98658.97;;;6.91;100.00
78485;BME280;67773;50.806;8.776;2024-03-23T03:17:00;98657.88;;;6.95;100.00
78485;BME280;67773;50.806;8.776;2024-03-23T03:19:25;98657.03;;;6.95;100.00
78485;BME280;67773;50.806;8.776;2024-03-23T03:21:51;98668.91;;;6.86;100.00
78485;BME280;67773;50.806;8.776;2024-03-23T03:24:16;98670.69;;;6.86;100.00
78485;BME280;67773;50.806;8.776;2024-03-23T03:26:42;98669.28;;;6.96;100.00
78485;BME280;67773;50.806;8.776;2024-03-23T03:29:07;98669.19;;;6.98;100.00
78485;BME280;67773;50.806;8.776;2024-03-23T03:31:33;98667.78;;;7.08;100.00
78485;BME280;67773;50.806;8.776;2024-03-23T03:33:58;98662.13;;;6.98;100.00
78485;BME280;67773;50.806;8.776;2024-03-23T03:36:23;98672.16;;;6.91;100.00
78485;BME280;67773;50.806;8.776;2024-03-23T03:38:48;98672.34;;;6.88;100.00
78485;BME280;67773;50.806;8.776;2024-03-23T03:41:14;98657.38;;;6.72;100.00
78485;BME280;67773;50.806;8.776;2024-03-23T03:43:39;98652.41;;;6.65;100.00
78485;BME280;67773;50.806;8.776;2024-03-23T03:46:05;98666.59;;;6.63;100.00
78485;BME280;67773;50.806;8.776;2024-03-23T03:48:33;98664.22;;;6.58;100.00
78485;BME280;67773;50.806;8.776;2024-03-23T03:50:58;98660.94;;;6.53;100.00
78485;BME280;67773;50.806;8.776;2024-03-23T03:53:23;98665.75;;;6.62;100.00
78485;BME280;67773;50.806;8.776;2024-03-23T03:55:49;98662.81;;;6.51;100.00
78485;BME280;67773;50.806;8.776;2024-03-23T03:58:14;98653.75;;;6.40;100.00
78485;BME280;67773;50.806;8.776;2024-03-23T04:00:39;98665.44;;;6.34;100.00
78485;BME280;67773;50.806;8.776;2024-03-23T04:03:05;98674.50;;;6.28;100.00
78485;BME280;67773;50.806;8.776;2024-03-23T04:05:30;98672.53;;;6.15;100.00
78485;BME280;67773;50.806;8.776;2024-03-23T04:07:56;98671.16;;;6.07;100.00
78485;BME280;67773;50.806;8.776;2024-03-23T04:10:21;98695.34;;;6.16;100.00
78485;BME280;67773;50.806;8.776;2024-03-23T04:12:47;98702.59;;;6.11;100.00
78485;BME280;67773;50.806;8.776;2024-03-23T04:15:12;98699.03;;;6.12;100.00
78485;BME280;67773;50.806;8.776;2024-03-23T04:17:38;98682.94;;;6.18;100.00
78485;BME280;67773;50.806;8.776;2024-03-23T04:20:04;98680.06;;;6.05;100.00
78485;BME280;67773;50.806;8.776;2024-03-23T04:22:34;98670.50;;;6.02;100.00
78485;BME280;67773;50.806;8.776;2024-03-23T04:25:00;98681.28;;;5.98;100.00
78485;BME280;67773;50.806;8.776;2024-03-23T04:27:25;98677.56;;;6.02;100.00
78485;BME280;67773;50.806;8.776;2024-03-23T04:29:51;98685.97;;;5.91;100.00
78485;BME280;67773;50.806;8.776;2024-03-23T04:32:17;98700.00;;;5.92;100.00
78485;BME280;67773;50.806;8.776;2024-03-23T04:34:43;98699.78;;;5.96;100.00
78485;BME280;67773;50.806;8.776;2024-03-23T04:37:09;98695.97;;;5.83;100.00
78485;BME280;67773;50.806;8.776;2024-03-23T04:39:35;98707.25;;;5.87;100.00
78485;BME280;67773;50.806;8.776;2024-03-23T04:42:01;98709.28;;;5.80;100.00
78485;BME280;67773;50.806;8.776;2024-03-23T04:44:28;98709.66;;;5.91;100.00
78485;BME280;67773;50.806;8.776;2024-03-23T04:46:53;98714.75;;;5.96;100.00
78485;BME280;67773;50.806;8.776;2024-03-23T04:49:18;98707.81;;;5.93;100.00
78485;BME280;67773;50.806;8.776;2024-03-23T04:51:44;98711.16;;;5.78;100.00
78485;BME280;67773;50.806;8.776;2024-03-23T04:54:12;98708.44;;;5.79;100.00
78485;BME280;67773;50.806;8.776;2024-03-23T04:56:37;98713.88;;;5.76;100.00
78485;BME280;67773;50.806;8.776;2024-03-23T04:59:02;98709.16;;;5.64;100.00
78485;BME280;67773;50.806;8.776;2024-03-23T05:01:30;98717.16;;;5.63;100.00
78485;BME280;67773;50.806;8.776;2024-03-23T05:03:56;98718.63;;;5.68;100.00
78485;BME280;67773;50.806;8.776;2024-03-23T05:06:22;98723.47;;;5.59;100.00
78485;BME280;67773;50.806;8.776;2024-03-23T05:08:47;98727.50;;;5.47;100.00
78485;BME280;67773;50.806;8.776;2024-03-23T05:11:12;98739.47;;;5.54;100.00
78485;BME280;67773;50.806;8.776;2024-03-23T05:13:38;98736.19;;;5.49;100.00
78485;BME280;67773;50.806;8.776;2024-03-23T05:16:03;98745.22;;;5.43;100.00
78485;BME280;67773;50.806;8.776;2024-03-23T05:18:29;98743.66;;;5.58;100.00
78485;BME280;67773;50.806;8.776;2024-03-23T05:20:58;98756.31;;;5.50;100.00
78485;BME280;67773;50.806;8.776;2024-03-23T05:23:24;98757.97;;;5.53;100.00
78485;BME280;67773;50.806;8.776;2024-03-23T05:25:50;98759.00;;;5.48;100.00
78485;BME280;67773;50.806;8.776;2024-03-23T05:28:16;98765.88;;;5.53;100.00
78485;BME280;67773;50.806;8.776;2024-03-23T05:30:42;98786.56;;;5.60;100.00
78485;BME280;67773;50.806;8.776;2024-03-23T05:33:07;98793.75;;;5.57;100.00
78485;BME280;67773;50.806;8.776;2024-03-23T05:35:33;98806.94;;;5.36;100.00
78485;BME280;67773;50.806;8.776;2024-03-23T05:37:58;98817.06;;;5.45;100.00
78485;BME280;67773;50.806;8.776;2024-03-23T05:40:26;98811.94;;;5.42;100.00
78485;BME280;67773;50.806;8.776;2024-03-23T05:42:51;98807.84;;;5.35;100.00
78485;BME280;67773;50.806;8.776;2024-03-23T05:45:21;98800.22;;;5.29;100.00
78485;BME280;67773;50.806;8.776;2024-03-23T05:47:47;98796.41;;;5.36;100.00
78485;BME280;67773;50.806;8.776;2024-03-23T05:50:13;98806.25;;;5.51;100.00
78485;BME280;67773;50.806;8.776;2024-03-23T05:52:39;98803.59;;;5.51;100.00
78485;BME280;67773;50.806;8.776;2024-03-23T05:55:05;98803.13;;;5.43;100.00
78485;BME280;67773;50.806;8.776;2024-03-23T05:57:30;98803.97;;;5.44;100.00
78485;BME280;67773;50.806;8.776;2024-03-23T05:59:55;98799.38;;;5.29;100.00
78485;BME280;67773;50.806;8.776;2024-03-23T06:02:21;98789.97;;;5.23;100.00
78485;BME280;67773;50.806;8.776;2024-03-23T06:04:47;98785.50;;;5.25;100.00
78485;BME280;67773;50.806;8.776;2024-03-23T06:07:12;98798.25;;;5.14;100.00
78485;BME280;67773;50.806;8.776;2024-03-23T06:09:40;98792.94;;;5.15;100.00
78485;BME280;67773;50.806;8.776;2024-03-23T06:12:05;98787.53;;;5.18;100.00
78485;BME280;67773;50.806;8.776;2024-03-23T06:14:31;98798.91;;;5.19;100.00
78485;BME280;67773;50.806;8.776;2024-03-23T06:16:56;98800.59;;;5.20;100.00
78485;BME280;67773;50.806;8.776;2024-03-23T06:19:21;98791.16;;;5.36;100.00
78485;BME280;67773;50.806;8.776;2024-03-23T06:21:47;98789.28;;;5.38;100.00
78485;BME280;67773;50.806;8.776;2024-03-23T06:24:12;98801.81;;;5.33;100.00
78485;BME280;67773;50.806;8.776;2024-03-23T06:26:38;98819.31;;;5.14;100.00
78485;BME280;67773;50.806;8.776;2024-03-23T06:29:03;98817.19;;;5.02;100.00
78485;BME280;67773;50.806;8.776;2024-03-23T06:31:30;98828.50;;;5.04;100.00
78485;BME280;67773;50.806;8.776;2024-03-23T06:33:55;98837.84;;;5.11;100.00
78485;BME280;67773;50.806;8.776;2024-03-23T06:36:21;98845.88;;;5.28;100.00
78485;BME280;67773;50.806;8.776;2024-03-23T06:38:46;98855.44;;;5.09;100.00
78485;BME280;67773;50.806;8.776;2024-03-23T06:41:12;98861.47;;;5.12;100.00
78485;BME280;67773;50.806;8.776;2024-03-23T06:43:37;98857.56;;;5.01;100.00
78485;BME280;67773;50.806;8.776;2024-03-23T06:46:03;98871.50;;;5.03;100.00
78485;BME280;67773;50.806;8.776;2024-03-23T06:48:29;98890.69;;;5.05;100.00
78485;BME280;67773;50.806;8.776;2024-03-23T06:50:56;98903.41;;;5.15;100.00
78485;BME280;67773;50.806;8.776;2024-03-23T06:53:22;98907.44;;;5.24;100.00
78485;BME280;67773;50.806;8.776;2024-03-23T06:55:50;98900.16;;;5.09;100.00
78485;BME280;67773;50.806;8.776;2024-03-23T06:58:16;98903.34;;;5.17;100.00
78485;BME280;67773;50.806;8.776;2024-03-23T07:00:41;98908.28;;;5.25;100.00
78485;BME280;67773;50.806;8.776;2024-03-23T07:03:06;98902.84;;;5.29;100.00
78485;BME280;67773;50.806;8.776;2024-03-23T07:05:32;98907.84;;;5.35;100.00
78485;BME280;67773;50.806;8.776;2024-03-23T07:07:57;98908.78;;;5.34;100.00
78485;BME280;67773;50.806;8.776;2024-03-23T07:10:22;98907.47;;;5.44;100.00
78485;BME280;67773;50.806;8.776;2024-03-23T07:12:48;98902.66;;;5.54;100.00
78485;BME280;67773;50.806;8.776;2024-03-23T07:15:13;98903.13;;;5.64;100.00
78485;BME280;67773;50.806;8.776;2024-03-23T07:17:39;98900.44;;;5.65;100.00
78485;BME280;67773;50.806;8.776;2024-03-23T07:20:04;98915.38;;;5.44;100.00
78485;BME280;67773;50.806;8.776;2024-03-23T07:22:30;98922.88;;;5.54;100.00
78485;BME280;67773;50.806;8.776;2024-03-23T07:24:57;98930.63;;;5.57;100.00
78485;BME280;67773;50.806;8.776;2024-03-23T07:27:22;98948.47;;;5.70;100.00
78485;BME280;67773;50.806;8.776;2024-03-23T07:29:49;98954.06;;;5.42;100.00
78485;BME280;67773;50.806;8.776;2024-03-23T07:32:14;98944.97;;;5.49;100.00
78485;BME280;67773;50.806;8.776;2024-03-23T07:34:39;98947.41;;;5.54;100.00
78485;BME280;67773;50.806;8.776;2024-03-23T07:37:05;98957.84;;;5.35;100.00
78485;BME280;67773;50.806;8.776;2024-03-23T07:39:31;98962.38;;;5.52;100.00
78485;BME280;67773;50.806;8.776;2024-03-23T07:41:58;98962.25;;;5.35;100.00
78485;BME280;67773;50.806;8.776;2024-03-23T07:44:23;98964.94;;;5.33;100.00
78485;BME280;67773;50.806;8.776;2024-03-23T07:46:48;98964.28;;;5.28;100.00
78485;BME280;67773;50.806;8.776;2024-03-23T07:49:14;98973.59;;;5.15;100.00
78485;BME280;67773;50.806;8.776;2024-03-23T07:51:39;98960.00;;;5.26;100.00
78485;BME280;67773;50.806;8.776;2024-03-23T07:54:05;98964.34;;;5.27;100.00
78485;BME280;67773;50.806;8.776;2024-03-23T07:56:31;98955.78;;;5.21;100.00
78485;BME280;67773;50.806;8.776;2024-03-23T07:58:57;98954.28;;;5.36;100.00
78485;BME280;67773;50.806;8.776;2024-03-23T08:01:22;98961.03;;;5.43;100.00
78485;BME280;67773;50.806;8.776;2024-03-23T08:03:49;98961.88;;;5.44;100.00
78485;BME280;67773;50.806;8.776;2024-03-23T08:06:19;98963.28;;;5.31;100.00
78485;BME280;67773;50.806;8.776;2024-03-23T08:08:46;98975.72;;;5.27;100.00
78485;BME280;67773;50.806;8.776;2024-03-23T08:11:12;98981.75;;;5.29;100.00
78485;BME280;67773;50.806;8.776;2024-03-23T08:13:42;98984.47;;;5.28;100.00
78485;BME280;67773;50.806;8.776;2024-03-23T08:16:10;98973.91;;;5.49;100.00
78485;BME280;67773;50.806;8.776;2024-03-23T08:18:35;98993.22;;;5.70;100.00
78485;BME280;67773;50.806;8.776;2024-03-23T08:21:05;98990.69;;;5.47;100.00
78485;BME280;67773;50.806;8.776;2024-03-23T08:23:34;98995.38;;;5.61;100.00
78485;BME280;67773;50.806;8.776;2024-03-23T08:26:05;98987.06;;;5.49;100.00
78485;BME280;67773;50.806;8.776;2024-03-23T08:28:30;98992.59;;;5.43;100.00
78485;BME280;67773;50.806;8.776;2024-03-23T08:30:56;99001.47;;;5.41;100.00
78485;BME280;67773;50.806;8.776;2024-03-23T08:33:22;99006.00;;;5.37;100.00
78485;BME280;67773;50.806;8.776;2024-03-23T08:38:20;99008.00;;;5.31;100.00
78485;BME280;67773;50.806;8.776;2024-03-23T08:40:45;99005.28;;;5.34;100.00
78485;BME280;67773;50.806;8.776;2024-03-23T08:43:11;99010.47;;;5.35;100.00
78485;BME280;67773;50.806;8.776;2024-03-23T08:45:36;99011.44;;;5.55;100.00
78485;BME280;67773;50.806;8.776;2024-03-23T08:48:01;99011.09;;;5.42;100.00
78485;BME280;67773;50.806;8.776;2024-03-23T08:50:27;99021.84;;;5.58;100.00
78485;BME280;67773;50.806;8.776;2024-03-23T08:52:58;99021.78;;;5.59;100.00
78485;BME280;67773;50.806;8.776;2024-03-23T08:55:23;99023.13;;;5.47;100.00
78485;BME280;67773;50.806;8.776;2024-03-23T08:57:49;99034.34;;;5.53;100.00
78485;BME280;67773;50.806;8.776;2024-03-23T09:00:14;99029.13;;;5.51;100.00
78485;BME280;67773;50.806;8.776;2024-03-23T09:02:40;99035.97;;;5.77;100.00
78485;BME280;67773;50.806;8.776;2024-03-23T09:05:05;99036.50;;;5.85;100.00
78485;BME280;67773;50.806;8.776;2024-03-23T09:07:31;99042.84;;;6.01;100.00
78485;BME280;67773;50.806;8.776;2024-03-23T09:09:56;99038.38;;;6.24;100.00
78485;BME280;67773;50.806;8.776;2024-03-23T09:12:22;99042.84;;;6.42;100.00
78485;BME280;67773;50.806;8.776;2024-03-23T09:14:47;99034.97;;;6.61;100.00
78485;BME280;67773;50.806;8.776;2024-03-23T09:17:12;99031.00;;;6.90;100.00
78485;BME280;67773;50.806;8.776;2024-03-23T09:19:38;99036.16;;;7.12;100.00
78485;BME280;67773;50.806;8.776;2024-03-23T09:22:04;99038.72;;;7.13;100.00
78485;BME280;67773;50.806;8.776;2024-03-23T09:24:30;99032.59;;;7.49;100.00
78485;BME280;67773;50.806;8.776;2024-03-23T09:26:57;99026.97;;;7.91;100.00
78485;BME280;67773;50.806;8.776;2024-03-23T09:29:22;99024.47;;;7.88;100.00
78485;BME280;67773;50.806;8.776;2024-03-23T09:31:47;99025.34;;;8.23;100.00
78485;BME280;67773;50.806;8.776;2024-03-23T09:34:13;99024.78;;;8.17;100.00
78485;BME280;67773;50.806;8.776;2024-03-23T09:36:38;99023.78;;;8.02;100.00
78485;BME280;67773;50.806;8.776;2024-03-23T09:39:03;99018.50;;;8.19;100.00
78485;BME280;67773;50.806;8.776;2024-03-23T09:41:30;99014.53;;;8.28;100.00
78485;BME280;67773;50.806;8.776;2024-03-23T09:43:56;99002.34;;;10.72;100.00
78485;BME280;67773;50.806;8.776;2024-03-23T09:46:21;98990.56;;;12.37;100.00
78485;BME280;67773;50.806;8.776;2024-03-23T09:48:47;98999.22;;;12.41;98.41
78485;BME280;67773;50.806;8.776;2024-03-23T09:51:12;98996.03;;;10.46;100.00
78485;BME280;67773;50.806;8.776;2024-03-23T09:53:38;99005.09;;;10.41;100.00
78485;BME280;67773;50.806;8.776;2024-03-23T09:56:04;98995.06;;;13.72;100.00
78485;BME280;67773;50.806;8.776;2024-03-23T09:58:29;98985.00;;;14.68;72.41
78485;BME280;67773;50.806;8.776;2024-03-23T10:00:54;98988.03;;;14.06;73.61
78485;BME280;67773;50.806;8.776;2024-03-23T10:03:20;98980.19;;;14.62;70.43
78485;BME280;67773;50.806;8.776;2024-03-23T10:05:45;98995.78;;;11.47;84.17
78485;BME280;67773;50.806;8.776;2024-03-23T10:10:39;98989.59;;;12.26;85.92
78485;BME280;67773;50.806;8.776;2024-03-23T10:13:04;98983.19;;;10.95;91.87
78485;BME280;67773;50.806;8.776;2024-03-23T10:15:33;98996.81;;;9.58;95.97
78485;BME280;67773;50.806;8.776;2024-03-23T10:18:22;98994.78;;;9.77;100.00
78485;BME280;67773;50.806;8.776;2024-03-23T10:21:09;98990.72;;;13.47;73.12
78485;BME280;67773;50.806;8.776;2024-03-23T10:23:37;98989.06;;;13.81;63.66
78485;BME280;67773;50.806;8.776;2024-03-23T10:26:22;98969.72;;;16.53;50.24
78485;BME280;67773;50.806;8.776;2024-03-23T10:31:17;98968.50;;;15.51;54.69
78485;BME280;67773;50.806;8.776;2024-03-23T10:33:49;98961.84;;;14.80;52.27
78485;BME280;67773;50.806;8.776;2024-03-23T10:36:15;98954.72;;;13.53;57.10
78485;BME280;67773;50.806;8.776;2024-03-23T10:38:41;98936.91;;;16.91;50.08
78485;BME280;67773;50.806;8.776;2024-03-23T10:41:08;98934.38;;;13.76;52.15
78485;BME280;67773;50.806;8.776;2024-03-23T10:43:36;98945.50;;;12.60;62.14
78485;BME280;67773;50.806;8.776;2024-03-23T10:46:01;98931.53;;;14.12;58.20
78485;BME280;67773;50.806;8.776;2024-03-23T10:48:27;98939.59;;;13.29;60.90
78485;BME280;67773;50.806;8.776;2024-03-23T10:50:53;98931.25;;;11.84;70.61
78485;BME280;67773;50.806;8.776;2024-03-23T10:53:21;98945.41;;;11.04;76.19
78485;BME280;67773;50.806;8.776;2024-03-23T10:55:50;98950.44;;;10.39;80.04
78485;BME280;67773;50.806;8.776;2024-03-23T10:58:18;98965.25;;;9.39;86.87
78485;BME280;67773;50.806;8.776;2024-03-23T11:00:46;98988.63;;;8.83;95.66
78485;BME280;67773;50.806;8.776;2024-03-23T11:03:31;99001.22;;;7.60;100.00
78485;BME280;67773;50.806;8.776;2024-03-23T11:05:56;99004.91;;;7.75;100.00
78485;BME280;67773;50.806;8.776;2024-03-23T11:08:39;98988.09;;;8.61;100.00
78485;BME280;67773;50.806;8.776;2024-03-23T11:13:42;98959.38;;;12.14;100.00
78485;BME280;67773;50.806;8.776;2024-03-23T11:16:14;98937.78;;;14.47;83.57
78485;BME280;67773;50.806;8.776;2024-03-23T11:18:40;98934.06;;;15.69;59.78
78485;BME280;67773;50.806;8.776;2024-03-23T11:21:07;98934.25;;;14.46;57.59
78485;BME280;67773;50.806;8.776;2024-03-23T11:23:33;98938.41;;;13.34;71.93
78485;BME280;67773;50.806;8.776;2024-03-23T11:25:58;98938.22;;;11.73;81.89
78485;BME280;67773;50.806;8.776;2024-03-23T11:28:23;98938.72;;;10.98;92.10
78485;BME280;67773;50.806;8.776;2024-03-23T11:30:49;98947.59;;;9.98;99.92
78485;BME280;67773;50.806;8.776;2024-03-23T11:33:14;98967.94;;;9.37;100.00
78485;BME280;67773;50.806;8.776;2024-03-23T11:35:40;99013.53;;;8.63;100.00
78485;BME280;67773;50.806;8.776;2024-03-23T11:40:33;99035.66;;;5.41;100.00
78485;BME280;67773;50.806;8.776;2024-03-23T11:43:00;99046.19;;;5.41;100.00
78485;BME280;67773;50.806;8.776;2024-03-23T11:45:26;99047.03;;;5.85;100.00
78485;BME280;67773;50.806;8.776;2024-03-23T11:48:05;99008.69;;;6.00;100.00
78485;BME280;67773;50.806;8.776;2024-03-23T11:50:31;98999.38;;;6.12;100.00
78485;BME280;67773;50.806;8.776;2024-03-23T11:53:19;98973.94;;;8.46;100.00
78485;BME280;67773;50.806;8.776;2024-03-23T11:58:16;98945.22;;;12.52;95.15
78485;BME280;67773;50.806;8.776;2024-03-23T12:00:42;98941.84;;;11.72;100.00
78485;BME280;67773;50.806;8.776;2024-03-23T12:03:08;98941.47;;;11.24;100.00
78485;BME280;67773;50.806;8.776;2024-03-23T12:05:35;98933.97;;;11.70;100.00
78485;BME280;67773;50.806;8.776;2024-03-23T12:08:39;98946.75;;;11.38;100.00
78485;BME280;67773;50.806;8.776;2024-03-23T12:11:09;98957.34;;;9.53;100.00
78485;BME280;67773;50.806;8.776;2024-03-23T12:13:36;98955.31;;;8.48;100.00
78485;BME280;67773;50.806;8.776;2024-03-23T12:18:40;98947.91;;;9.63;100.00
78485;BME280;67773;50.806;8.776;2024-03-23T12:21:06;98950.25;;;9.53;100.00
78485;BME280;67773;50.806;8.776;2024-03-23T12:23:31;98948.97;;;9.75;100.00
78485;BME280;67773;50.806;8.776;2024-03-23T12:25:57;98941.09;;;10.03;100.00
78485;BME280;67773;50.806;8.776;2024-03-23T12:28:22;98932.44;;;11.80;100.00
78485;BME280;67773;50.806;8.776;2024-03-23T12:30:48;98936.69;;;11.56;99.91
78485;BME280;67773;50.806;8.776;2024-03-23T12:33:13;98943.31;;;10.68;100.00
78485;BME280;67773;50.806;8.776;2024-03-23T12:35:39;98985.50;;;9.08;100.00
78485;BME280;67773;50.806;8.776;2024-03-23T12:38:04;98989.34;;;7.15;100.00
78485;BME280;67773;50.806;8.776;2024-03-23T12:40:29;99016.66;;;6.19;100.00
78485;BME280;67773;50.806;8.776;2024-03-23T12:42:55;99003.66;;;6.14;100.00
78485;BME280;67773;50.806;8.776;2024-03-23T12:45:21;98997.97;;;6.62;100.00
78485;BME280;67773;50.806;8.776;2024-03-23T12:47:46;98979.97;;;9.59;100.00
78485;BME280;67773;50.806;8.776;2024-03-23T12:50:12;98959.16;;;12.04;100.00
78485;BME280;67773;50.806;8.776;2024-03-23T12:52:37;98970.97;;;11.73;99.10
78485;BME280;67773;50.806;8.776;2024-03-23T12:55:03;98972.28;;;12.33;96.04
78485;BME280;67773;50.806;8.776;2024-03-23T12:57:31;98959.16;;;13.41;91.09
78485;BME280;67773;50.806;8.776;2024-03-23T12:59:56;98959.16;;;14.69;79.97
78485;BME280;67773;50.806;8.776;2024-03-23T13:02:21;98968.53;;;13.47;76.46
78485;BME280;67773;50.806;8.776;2024-03-23T13:04:53;98962.84;;;14.10;79.48
78485;BME280;67773;50.806;8.776;2024-03-23T13:07:20;98962.34;;;13.10;76.13
78485;BME280;67773;50.806;8.776;2024-03-23T13:09:46;98964.91;;;12.11;87.10
78485;BME280;67773;50.806;8.776;2024-03-23T13:12:11;98964.25;;;10.30;98.74
78485;BME280;67773;50.806;8.776;2024-03-23T13:14:39;98974.94;;;9.08;100.00
78485;BME280;67773;50.806;8.776;2024-03-23T13:17:06;98977.78;;;8.72;100.00
78485;BME280;67773;50.806;8.776;2024-03-23T13:19:31;98967.13;;;8.58;100.00
78485;BME280;67773;50.806;8.776;2024-03-23T13:21:58;98965.53;;;8.38;100.00
78485;BME280;67773;50.806;8.776;2024-03-23T13:24:27;98985.59;;;8.25;100.00
78485;BME280;67773;50.806;8.776;2024-03-23T13:26:54;98975.16;;;8.22;100.00
78485;BME280;67773;50.806;8.776;2024-03-23T13:29:20;98983.13;;;7.87;100.00
78485;BME280;67773;50.806;8.776;2024-03-23T13:31:49;98986.63;;;7.70;100.00
78485;BME280;67773;50.806;8.776;2024-03-23T13:34:15;98989.69;;;7.27;100.00
78485;BME280;67773;50.806;8.776;2024-03-23T13:36:44;98998.75;;;7.21;100.00
78485;BME280;67773;50.806;8.776;2024-03-23T13:39:10;99017.25;;;7.21;100.00
78485;BME280;67773;50.806;8.776;2024-03-23T13:41:44;99025.44;;;6.58;100.00
78485;BME280;67773;50.806;8.776;2024-03-23T13:44:13;99017.19;;;6.27;100.00
78485;BME280;67773;50.806;8.776;2024-03-23T13:46:40;99015.22;;;6.51;100.00
78485;BME280;67773;50.806;8.776;2024-03-23T13:49:24;99013.59;;;6.48;100.00
78485;BME280;67773;50.806;8.776;2024-03-23T13:51:49;99020.75;;;6.45;100.00
78485;BME280;67773;50.806;8.776;2024-03-23T13:54:15;99027.66;;;6.28;100.00
78485;BME280;67773;50.806;8.776;2024-03-23T13:56:40;99028.13;;;5.75;100.00
78485;BME280;67773;50.806;8.776;2024-03-23T13:59:06;99041.75;;;5.65;100.00
78485;BME280;67773;50.806;8.776;2024-03-23T14:01:31;99027.06;;;5.79;100.00
78485;BME280;67773;50.806;8.776;2024-03-23T14:03:57;99025.09;;;6.06;100.00
78485;BME280;67773;50.806;8.776;2024-03-23T14:06:22;99000.97;;;6.55;100.00
78485;BME280;67773;50.806;8.776;2024-03-23T14:08:49;99013.69;;;7.39;100.00